Time;durP1;ratioP1;P1;durP2;ratioP2;P2;SDS_P1;SDS_P2;PMS_P1;PMS_P2;Temp;Humidity;BMP_temperature;BMP_pressure;BME280_temperature;BME280_humidity;BME280_pressure;Samples;Min_cycle;Max_cycle;Signal;HPM_P1;HPM_P2
2021/10/14 00:00:36;;;;;;;0.30;0.30;;;10.90;99.90;;;;;;4955467;29;20428;-64
2021/10/14 00:03:03;;;;;;;0.22;0.20;;;11.00;99.90;;;;;;4955831;29;20619;-64
2021/10/14 00:05:29;;;;;;;3.53;2.05;;;11.00;99.90;;;;;;4956593;28;20523;-64
2021/10/14 00:07:54;;;;;;;0.50;0.30;;;11.20;99.90;;;;;;4955701;29;20191;-64
2021/10/14 00:10:20;;;;;;;0.40;0.33;;;11.20;99.90;;;;;;4956240;29;20206;-64
2021/10/14 00:12:45;;;;;;;1.80;1.30;;;11.30;99.90;;;;;;4956052;28;20474;-64
2021/10/14 00:15:11;;;;;;;0.63;0.63;;;11.20;99.90;;;;;;4956140;29;20184;-64
2021/10/14 00:17:36;;;;;;;0.30;0.20;;;11.20;99.90;;;;;;4956224;29;20203;-64
2021/10/14 00:20:04;;;;;;;1.43;0.60;;;11.30;99.90;;;;;;4956940;28;20184;-63
2021/10/14 00:22:29;;;;;;;0.22;0.17;;;11.20;99.90;;;;;;4957087;28;20191;-63
2021/10/14 00:24:55;;;;;;;1.30;0.83;;;11.20;99.90;;;;;;4956029;29;20216;-64
2021/10/14 00:27:20;;;;;;;0.30;0.30;;;11.20;99.90;;;;;;4955636;28;20238;-64
2021/10/14 00:29:46;;;;;;;0.30;0.30;;;11.30;99.90;;;;;;4955486;28;20626;-63
2021/10/14 00:32:12;;;;;;;0.40;0.30;;;11.30;99.90;;;;;;4956079;28;20236;-65
2021/10/14 00:34:37;;;;;;;1.03;0.77;;;11.30;99.90;;;;;;4956118;29;20184;-64
2021/10/14 00:37:03;;;;;;;0.20;0.10;;;11.30;99.90;;;;;;4957081;28;20266;-65
2021/10/14 00:39:28;;;;;;;0.50;0.50;;;11.40;99.90;;;;;;4959588;29;20238;-65
2021/10/14 00:41:54;;;;;;;0.30;0.20;;;11.50;99.90;;;;;;4962027;29;20318;-66
2021/10/14 00:44:19;;;;;;;2.57;0.63;;;11.60;99.90;;;;;;4963292;28;20180;-66
2021/10/14 00:46:55;;;;;;;0.30;0.20;;;11.60;99.90;;;;;;4960268;29;20239;-66
2021/10/14 00:49:22;;;;;;;0.30;0.20;;;11.60;99.90;;;;;;4958690;28;20363;-66
2021/10/14 00:51:48;;;;;;;0.30;0.30;;;11.70;99.90;;;;;;4958546;28;20212;-65
2021/10/14 00:54:18;;;;;;;0.30;0.20;;;11.60;99.90;;;;;;4958445;28;20633;-64
2021/10/14 00:56:45;;;;;;;0.60;0.47;;;11.60;99.90;;;;;;4961052;28;20438;-64
2021/10/14 00:59:12;;;;;;;0.45;0.30;;;11.60;99.90;;;;;;4963247;28;20239;-65
2021/10/14 01:01:38;;;;;;;1.20;1.08;;;11.50;99.90;;;;;;4960225;28;20599;-65
2021/10/14 01:04:05;;;;;;;0.57;0.47;;;11.60;99.90;;;;;;4958376;28;20188;-65
2021/10/14 01:06:31;;;;;;;0.65;0.65;;;11.60;99.90;;;;;;4958240;28;20214;-65
2021/10/14 01:08:57;;;;;;;1.88;1.77;;;11.60;99.90;;;;;;4957916;28;20239;-65
2021/10/14 01:11:24;;;;;;;0.30;0.20;;;11.50;99.90;;;;;;4958372;28;20598;-65
2021/10/14 01:13:49;;;;;;;1.25;1.15;;;11.60;99.90;;;;;;4958148;28;20656;-64
2021/10/14 01:16:15;;;;;;;1.53;1.17;;;11.60;99.90;;;;;;4958052;29;20267;-63
2021/10/14 01:18:40;;;;;;;28.87;1.33;;;11.50;99.90;;;;;;4957755;28;20637;-64
2021/10/14 01:21:07;;;;;;;0.30;0.10;;;11.50;99.90;;;;;;4957973;29;20263;-64
2021/10/14 01:23:32;;;;;;;0.55;0.55;;;11.50;99.90;;;;;;4958126;28;20282;-64
2021/10/14 01:25:58;;;;;;;0.30;0.30;;;11.50;99.90;;;;;;4958023;28;20672;-63
2021/10/14 01:28:23;;;;;;;0.50;0.30;;;11.50;99.90;;;;;;4956744;29;20633;-63
2021/10/14 01:30:49;;;;;;;0.47;0.47;;;11.60;99.90;;;;;;4957925;28;20180;-63
2021/10/14 01:33:16;;;;;;;0.83;0.83;;;11.60;99.90;;;;;;4957958;28;20195;-64
2021/10/14 01:35:43;;;;;;;0.28;0.20;;;11.60;99.90;;;;;;4958073;28;20183;-64
2021/10/14 01:38:08;;;;;;;0.30;0.20;;;11.60;99.90;;;;;;4957805;28;20226;-64
2021/10/14 01:40:34;;;;;;;0.50;0.50;;;11.70;99.90;;;;;;4957823;29;20251;-64
2021/10/14 01:42:59;;;;;;;0.30;0.20;;;11.60;99.90;;;;;;4957660;28;20191;-64
2021/10/14 01:45:25;;;;;;;0.30;0.20;;;11.80;99.90;;;;;;4958571;29;20196;-64
2021/10/14 01:47:51;;;;;;;1.43;0.53;;;11.80;99.90;;;;;;4964215;28;20180;-65
2021/10/14 01:50:16;;;;;;;0.50;0.50;;;11.90;99.90;;;;;;4963539;28;20493;-64
2021/10/14 01:52:42;;;;;;;0.70;0.70;;;11.90;99.90;;;;;;4963267;28;20183;-64
2021/10/14 01:55:08;;;;;;;0.53;0.53;;;11.90;99.90;;;;;;4958104;28;20619;-64
2021/10/14 01:57:33;;;;;;;0.30;0.20;;;11.90;99.90;;;;;;4957428;29;20189;-64
2021/10/14 01:59:59;;;;;;;0.30;0.20;;;11.90;99.90;;;;;;4957462;29;20189;-64
2021/10/14 02:02:24;;;;;;;0.40;0.40;;;11.90;99.90;;;;;;4957741;29;20535;-64
2021/10/14 02:04:50;;;;;;;0.67;0.67;;;11.90;99.90;;;;;;4957323;29;20549;-64
2021/10/14 02:07:15;;;;;;;0.30;0.20;;;11.80;99.90;;;;;;4957259;29;20615;-64
2021/10/14 02:09:41;;;;;;;0.30;0.20;;;11.90;99.90;;;;;;4955891;29;20291;-64
2021/10/14 02:12:06;;;;;;;0.30;0.10;;;12.00;99.90;;;;;;4957103;29;20188;-64
2021/10/14 02:14:32;;;;;;;0.30;0.10;;;12.00;99.90;;;;;;4957011;28;20187;-64
2021/10/14 02:16:58;;;;;;;0.30;0.30;;;12.10;99.90;;;;;;4956938;28;20196;-64
2021/10/14 02:19:23;;;;;;;0.40;0.40;;;12.20;99.90;;;;;;4956560;29;20263;-64
2021/10/14 02:21:49;;;;;;;0.33;0.33;;;12.30;99.90;;;;;;4956876;29;20235;-64
2021/10/14 02:24:14;;;;;;;0.30;0.20;;;12.20;99.90;;;;;;4956789;29;20192;-64
2021/10/14 02:26:40;;;;;;;0.30;0.20;;;12.20;99.90;;;;;;4956906;28;20535;-64
2021/10/14 02:29:05;;;;;;;0.30;0.30;;;12.30;99.90;;;;;;4956993;29;20622;-64
2021/10/14 02:31:31;;;;;;;0.30;0.20;;;12.20;99.90;;;;;;4957080;29;20196;-64
2021/10/14 02:33:58;;;;;;;0.30;0.20;;;12.20;99.90;;;;;;4957078;28;20224;-64
2021/10/14 02:36:23;;;;;;;1.03;1.03;;;12.40;99.90;;;;;;4957032;29;20203;-64
2021/10/14 02:38:49;;;;;;;0.30;0.20;;;12.40;99.90;;;;;;4956760;29;20184;-64
2021/10/14 02:41:14;;;;;;;0.60;0.60;;;12.50;99.90;;;;;;4957013;29;20633;-64
2021/10/14 02:43:40;;;;;;;0.30;0.30;;;12.40;99.90;;;;;;4957064;28;20235;-64
2021/10/14 02:46:05;;;;;;;0.30;0.30;;;12.40;99.90;;;;;;4956415;29;20208;-64
2021/10/14 02:48:31;;;;;;;0.30;0.20;;;12.40;99.90;;;;;;4956310;29;20190;-64
2021/10/14 02:50:56;;;;;;;2.20;1.40;;;12.40;99.90;;;;;;4956418;29;20177;-63
2021/10/14 02:53:23;;;;;;;0.30;0.20;;;12.40;99.90;;;;;;4956368;28;20643;-63
2021/10/14 02:55:48;;;;;;;0.30;0.20;;;12.40;99.90;;;;;;4956877;29;20177;-64
2021/10/14 02:58:14;;;;;;;0.30;0.20;;;12.40;99.90;;;;;;4956941;28;20196;-63
2021/10/14 03:00:40;;;;;;;0.40;0.30;;;12.40;99.90;;;;;;4956379;28;20188;-64
2021/10/14 03:03:05;;;;;;;0.30;0.20;;;12.50;99.90;;;;;;4956067;29;20626;-64
2021/10/14 03:05:31;;;;;;;0.30;0.20;;;12.60;99.90;;;;;;4956386;29;20235;-63
2021/10/14 03:07:56;;;;;;;0.30;0.20;;;12.40;99.90;;;;;;4956179;28;20173;-64
2021/10/14 03:10:22;;;;;;;0.30;0.10;;;12.70;99.90;;;;;;4955940;28;20617;-63
2021/10/14 03:12:47;;;;;;;0.70;0.50;;;12.80;99.90;;;;;;4956084;28;20589;-63
2021/10/14 03:15:13;;;;;;;0.57;0.57;;;12.70;99.90;;;;;;4956606;29;20195;-64
2021/10/14 03:17:38;;;;;;;0.30;0.20;;;12.60;99.90;;;;;;4956992;29;20219;-64
2021/10/14 03:20:05;;;;;;;0.30;0.20;;;12.80;99.90;;;;;;4955764;28;20184;-64
2021/10/14 03:22:30;;;;;;;0.30;0.20;;;12.90;99.90;;;;;;4954806;29;20275;-65
2021/10/14 03:24:56;;;;;;;0.30;0.20;;;12.90;99.90;;;;;;4955795;28;20204;-65
2021/10/14 03:27:21;;;;;;;0.83;0.83;;;13.00;99.90;;;;;;4955848;29;20211;-65
2021/10/14 03:29:47;;;;;;;0.40;0.20;;;12.90;99.90;;;;;;4955517;29;20184;-65
2021/10/14 03:32:12;;;;;;;0.30;0.30;;;12.70;99.90;;;;;;4955709;29;20496;-65
2021/10/14 03:34:38;;;;;;;0.47;0.30;;;12.60;99.90;;;;;;4955780;28;20203;-65
2021/10/14 03:37:03;;;;;;;0.40;0.40;;;12.60;99.90;;;;;;4955577;29;20192;-65
2021/10/14 03:39:29;;;;;;;4.23;3.80;;;12.70;99.90;;;;;;4955463;29;20199;-65
2021/10/14 03:41:55;;;;;;;0.93;0.93;;;12.60;99.90;;;;;;4955604;28;20658;-65
2021/10/14 03:44:20;;;;;;;0.30;0.20;;;12.80;99.90;;;;;;4955438;28;20427;-65
2021/10/14 03:46:46;;;;;;;1.17;0.53;;;12.70;99.90;;;;;;4955996;29;20625;-65
2021/10/14 03:49:11;;;;;;;0.60;0.50;;;12.70;99.90;;;;;;4955242;28;20199;-65
2021/10/14 03:51:37;;;;;;;0.50;0.50;;;12.60;99.90;;;;;;4955586;28;20190;-65
2021/10/14 03:54:02;;;;;;;1.53;1.37;;;12.60;99.90;;;;;;4955629;28;20276;-66
2021/10/14 03:56:28;;;;;;;0.30;0.10;;;12.70;99.90;;;;;;4954441;29;20234;-66
2021/10/14 03:58:53;;;;;;;0.50;0.20;;;12.60;99.90;;;;;;4955111;28;20270;-65
2021/10/14 04:01:19;;;;;;;0.30;0.20;;;12.60;99.90;;;;;;4955396;28;20212;-65
2021/10/14 04:03:45;;;;;;;0.40;0.30;;;12.70;99.90;;;;;;4955528;29;20617;-65
2021/10/14 04:06:10;;;;;;;0.30;0.20;;;12.70;99.90;;;;;;4955566;28;20638;-65
2021/10/14 04:08:36;;;;;;;0.30;0.20;;;12.80;99.90;;;;;;4955607;28;20176;-65
2021/10/14 04:11:03;;;;;;;0.30;0.20;;;12.70;99.90;;;;;;4955579;28;20436;-65
2021/10/14 04:13:29;;;;;;;0.30;0.15;;;12.60;99.90;;;;;;4957874;29;20507;-65
2021/10/14 04:15:55;;;;;;;0.77;0.45;;;12.60;99.90;;;;;;4959483;28;20181;-65
2021/10/14 04:18:20;;;;;;;0.30;0.20;;;12.80;99.90;;;;;;4959109;29;20211;-64
2021/10/14 04:20:46;;;;;;;0.30;0.20;;;12.70;99.90;;;;;;4959064;29;20497;-64
2021/10/14 04:23:12;;;;;;;0.30;0.10;;;12.70;99.90;;;;;;4959073;29;20183;-65
2021/10/14 04:25:37;;;;;;;0.30;0.10;;;12.70;99.90;;;;;;4958784;29;20212;-65
2021/10/14 04:28:03;;;;;;;0.30;0.20;;;12.70;99.90;;;;;;4958376;29;20451;-64
2021/10/14 04:30:29;;;;;;;0.60;0.43;;;12.70;99.90;;;;;;4958757;28;20243;-65
2021/10/14 04:32:55;;;;;;;0.30;0.20;;;12.60;99.90;;;;;;4958709;28;20721;-65
2021/10/14 04:35:22;;;;;;;0.30;0.20;;;12.60;99.90;;;;;;4958751;29;20270;-65
2021/10/14 04:37:47;;;;;;;0.30;0.20;;;12.60;99.90;;;;;;4958572;29;20180;-65
2021/10/14 04:40:13;;;;;;;1.03;0.53;;;12.60;99.90;;;;;;4958563;28;20211;-64
2021/10/14 04:42:39;;;;;;;0.30;0.20;;;12.60;99.90;;;;;;4958595;28;20216;-64
2021/10/14 04:45:05;;;;;;;1.23;0.73;;;12.60;99.90;;;;;;4958483;29;20287;-65
2021/10/14 04:47:30;;;;;;;0.30;0.20;;;12.60;99.90;;;;;;4958396;28;20184;-65
2021/10/14 04:49:56;;;;;;;0.40;0.30;;;12.70;99.90;;;;;;4958222;28;20694;-65
2021/10/14 04:52:21;;;;;;;2.00;1.90;;;12.70;99.90;;;;;;4958343;29;20344;-65
2021/10/14 04:54:47;;;;;;;0.30;0.20;;;12.90;99.90;;;;;;4958441;29;20222;-65
2021/10/14 04:57:13;;;;;;;0.30;0.10;;;12.80;99.90;;;;;;4958730;29;20180;-65
2021/10/14 04:59:38;;;;;;;0.30;0.20;;;12.90;99.90;;;;;;4958611;28;20259;-65
2021/10/14 05:02:04;;;;;;;0.30;0.20;;;12.80;99.90;;;;;;4958097;28;20195;-65
2021/10/14 05:04:29;;;;;;;0.30;0.20;;;13.00;99.90;;;;;;4958139;29;20192;-65
2021/10/14 05:06:55;;;;;;;1.00;0.60;;;13.00;99.90;;;;;;4958235;29;20185;-65
2021/10/14 05:09:20;;;;;;;0.37;0.30;;;12.90;99.90;;;;;;4958022;29;20180;-65
2021/10/14 05:11:46;;;;;;;1.80;0.97;;;12.90;99.90;;;;;;4958105;29;20176;-65
2021/10/14 05:14:11;;;;;;;0.50;0.23;;;12.80;99.90;;;;;;4958186;28;20184;-67
2021/10/14 05:16:37;;;;;;;0.30;0.20;;;13.00;99.90;;;;;;4958077;29;20188;-66
2021/10/14 05:19:03;;;;;;;0.40;0.20;;;12.90;99.90;;;;;;4957749;29;20184;-66
2021/10/14 05:21:30;;;;;;;1.95;1.13;;;12.90;99.90;;;;;;4958058;28;20265;-66
2021/10/14 05:23:59;;;;;;;0.73;0.65;;;12.90;99.90;;;;;;4957520;28;20189;-65
2021/10/14 05:26:26;;;;;;;0.30;0.20;;;12.90;99.90;;;;;;4957727;28;20243;-65
2021/10/14 05:28:53;;;;;;;1.38;0.43;;;13.00;99.90;;;;;;4957456;28;20251;-65
2021/10/14 05:31:18;;;;;;;1.02;0.73;;;13.10;99.90;;;;;;4957657;28;20571;-65
2021/10/14 05:33:44;;;;;;;0.77;0.77;;;13.00;99.90;;;;;;4957691;29;20180;-66
2021/10/14 05:36:10;;;;;;;0.30;0.10;;;13.00;99.90;;;;;;4957568;29;20672;-66
2021/10/14 05:38:35;;;;;;;0.40;0.40;;;13.00;99.90;;;;;;4956558;29;20219;-66
2021/10/14 05:41:01;;;;;;;0.87;0.60;;;13.10;99.90;;;;;;4957484;29;20188;-66
2021/10/14 05:43:26;;;;;;;0.60;0.27;;;13.10;99.90;;;;;;4957598;29;20276;-66
2021/10/14 05:45:53;;;;;;;0.50;0.50;;;13.10;99.90;;;;;;4957349;28;20220;-66
2021/10/14 05:48:18;;;;;;;0.80;0.60;;;13.10;99.90;;;;;;4957004;29;20246;-66
2021/10/14 05:50:44;;;;;;;2.10;1.37;;;13.00;99.90;;;;;;4956358;29;20558;-66
2021/10/14 05:53:09;;;;;;;2.70;1.37;;;13.10;99.90;;;;;;4957268;29;20195;-65
2021/10/14 05:55:36;;;;;;;2.30;0.93;;;13.00;99.90;;;;;;4957371;29;20176;-65
2021/10/14 05:58:02;;;;;;;0.85;0.60;;;13.00;99.90;;;;;;4957147;28;20234;-65
2021/10/14 06:00:27;;;;;;;0.70;0.70;;;13.10;99.90;;;;;;4957660;29;20228;-66
2021/10/14 06:02:53;;;;;;;2.00;1.23;;;13.10;99.90;;;;;;4957687;29;20199;-65
2021/10/14 06:05:19;;;;;;;1.80;0.73;;;13.00;99.90;;;;;;4957088;28;20219;-65
2021/10/14 06:07:44;;;;;;;2.63;1.03;;;13.00;99.90;;;;;;4956948;28;20602;-66
2021/10/14 06:10:10;;;;;;;1.03;0.73;;;13.00;99.90;;;;;;4956926;28;20239;-65
2021/10/14 06:12:37;;;;;;;2.30;1.20;;;13.10;99.90;;;;;;4956761;29;20219;-66
2021/10/14 06:15:04;;;;;;;0.93;0.93;;;13.00;99.90;;;;;;4956830;29;20267;-66
2021/10/14 06:17:29;;;;;;;0.30;0.20;;;13.10;99.90;;;;;;4956920;29;20195;-65
2021/10/14 06:19:55;;;;;;;0.30;0.10;;;13.20;99.90;;;;;;4956755;29;20187;-65
2021/10/14 06:22:20;;;;;;;0.30;0.30;;;13.20;99.90;;;;;;4956625;28;20188;-65
2021/10/14 06:24:48;;;;;;;1.30;0.57;;;13.20;99.90;;;;;;4955770;29;20275;-65
2021/10/14 06:27:15;;;;;;;0.70;0.70;;;13.10;99.90;;;;;;4957219;28;20191;-65
2021/10/14 06:29:41;;;;;;;0.80;0.68;;;13.20;99.90;;;;;;4958455;28;20203;-66
2021/10/14 06:32:07;;;;;;;0.52;0.40;;;13.30;99.90;;;;;;4957400;29;20179;-65
2021/10/14 06:34:33;;;;;;;1.23;0.40;;;13.30;99.90;;;;;;4957848;28;20267;-66
2021/10/14 06:36:59;;;;;;;0.30;0.20;;;13.30;99.90;;;;;;4955778;29;20565;-65
2021/10/14 06:39:25;;;;;;;2.93;2.00;;;13.40;99.90;;;;;;4955880;28;20511;-65
2021/10/14 06:41:50;;;;;;;0.30;0.20;;;13.30;99.90;;;;;;4954869;28;21378;-66
2021/10/14 06:44:16;;;;;;;1.83;1.47;;;13.20;99.90;;;;;;4955807;29;20645;-65
2021/10/14 06:46:41;;;;;;;1.40;1.03;;;13.30;99.90;;;;;;4955968;28;20212;-65
2021/10/14 06:49:07;;;;;;;0.33;0.30;;;13.20;99.90;;;;;;4956206;28;20195;-65
2021/10/14 06:51:33;;;;;;;0.63;0.63;;;13.20;99.90;;;;;;4956323;28;20180;-65
2021/10/14 06:53:58;;;;;;;0.67;0.67;;;13.20;99.90;;;;;;4956174;28;20684;-65
2021/10/14 06:56:24;;;;;;;2.23;1.03;;;13.10;99.90;;;;;;4956581;28;20790;-65
2021/10/14 06:58:50;;;;;;;2.57;1.90;;;13.20;99.90;;;;;;4956147;28;20212;-64
2021/10/14 07:01:16;;;;;;;0.30;0.20;;;13.20;99.90;;;;;;4956324;28;20188;-64
2021/10/14 07:03:42;;;;;;;0.50;0.38;;;13.30;99.90;;;;;;4956245;28;20843;-64
2021/10/14 07:06:07;;;;;;;0.30;0.17;;;13.40;99.90;;;;;;4955754;28;20302;-63
2021/10/14 07:08:33;;;;;;;1.20;1.17;;;13.50;99.90;;;;;;4955659;28;20771;-64
2021/10/14 07:10:58;;;;;;;0.40;0.30;;;13.50;99.90;;;;;;4956064;28;20534;-64
2021/10/14 07:13:24;;;;;;;0.30;0.13;;;13.50;99.90;;;;;;4955834;28;20684;-64
2021/10/14 07:15:50;;;;;;;0.30;0.20;;;13.50;99.90;;;;;;4954680;28;20192;-64
2021/10/14 07:18:16;;;;;;;0.40;0.30;;;13.60;99.90;;;;;;4954539;29;20660;-64
2021/10/14 07:20:42;;;;;;;1.37;1.03;;;13.80;99.90;;;;;;4954592;28;20214;-64
2021/10/14 07:23:10;;;;;;;0.50;0.50;;;13.80;99.90;;;;;;4955287;28;20227;-64
2021/10/14 07:25:36;;;;;;;1.30;0.52;;;13.80;99.90;;;;;;4955704;28;20227;-65
2021/10/14 07:28:02;;;;;;;2.05;1.50;;;13.70;99.90;;;;;;4955378;28;20203;-65
2021/10/14 07:30:27;;;;;;;1.27;1.17;;;13.70;99.90;;;;;;4954523;28;20625;-65
2021/10/14 07:32:53;;;;;;;0.60;0.57;;;13.60;99.90;;;;;;4955817;28;20172;-65
2021/10/14 07:35:20;;;;;;;4.00;1.33;;;13.50;99.90;;;;;;4955618;28;20188;-65
2021/10/14 07:37:46;;;;;;;1.48;1.38;;;13.70;99.90;;;;;;4955473;28;20176;-65
2021/10/14 07:40:12;;;;;;;2.80;2.60;;;13.80;99.90;;;;;;4955175;28;20187;-65
2021/10/14 07:42:37;;;;;;;3.17;2.77;;;13.80;99.90;;;;;;4955529;28;20195;-66
2021/10/14 07:45:04;;;;;;;0.30;0.30;;;14.00;99.90;;;;;;4955493;28;20295;-65
2021/10/14 07:47:30;;;;;;;0.30;0.20;;;14.00;99.90;;;;;;4955373;28;20184;-65
2021/10/14 07:49:56;;;;;;;0.40;0.30;;;14.10;99.90;;;;;;4954973;28;20200;-65
2021/10/14 07:52:21;;;;;;;1.20;1.20;;;14.00;99.90;;;;;;4955392;28;20184;-64
2021/10/14 07:54:47;;;;;;;1.37;1.27;;;14.10;99.90;;;;;;4955402;28;20230;-64
2021/10/14 07:57:13;;;;;;;0.50;0.50;;;14.20;99.90;;;;;;4955259;28;20214;-64
2021/10/14 07:59:40;;;;;;;3.60;2.40;;;14.10;99.90;;;;;;4955086;28;20207;-64
2021/10/14 08:02:05;;;;;;;0.70;0.47;;;14.20;99.90;;;;;;4955324;28;20247;-64
2021/10/14 08:04:31;;;;;;;1.73;1.63;;;14.40;99.90;;;;;;4955294;28;20180;-67
2021/10/14 08:06:56;;;;;;;2.57;1.60;;;14.60;99.90;;;;;;4955480;28;20177;-67
2021/10/14 08:09:22;;;;;;;2.33;2.23;;;14.50;99.90;;;;;;4955013;28;20574;-66
2021/10/14 08:11:47;;;;;;;2.33;1.80;;;14.60;99.90;;;;;;4954476;28;20582;-66
2021/10/14 08:14:13;;;;;;;3.00;1.67;;;14.60;99.90;;;;;;4955376;28;20176;-66
2021/10/14 08:16:39;;;;;;;0.50;0.50;;;14.50;99.90;;;;;;4955360;28;20522;-64
2021/10/14 08:19:04;;;;;;;0.90;0.90;;;14.50;99.90;;;;;;4954839;28;20523;-66
2021/10/14 08:21:30;;;;;;;1.43;0.50;;;14.40;99.90;;;;;;4953853;29;20531;-66
2021/10/14 08:23:56;;;;;;;2.10;0.87;;;14.60;99.90;;;;;;4955180;28;20196;-66
2021/10/14 08:26:21;;;;;;;0.50;0.20;;;14.80;99.90;;;;;;4955068;28;20274;-66
2021/10/14 08:28:47;;;;;;;1.20;0.70;;;15.00;99.90;;;;;;4954612;28;20235;-66
2021/10/14 08:31:14;;;;;;;0.30;0.20;;;14.80;99.90;;;;;;4955070;28;20240;-66
2021/10/14 08:33:39;;;;;;;0.30;0.20;;;14.70;99.90;;;;;;4954142;28;20246;-66
2021/10/14 08:36:05;;;;;;;0.43;0.30;;;14.80;99.90;;;;;;4955394;28;20184;-65
2021/10/14 08:38:31;;;;;;;0.40;0.40;;;14.90;99.90;;;;;;4954879;28;20188;-65
2021/10/14 08:40:56;;;;;;;0.30;0.20;;;14.70;99.90;;;;;;4954998;28;20482;-65
2021/10/14 08:43:26;;;;;;;0.80;0.40;;;14.70;99.90;;;;;;4954897;28;20188;-65
2021/10/14 08:45:51;;;;;;;0.30;0.17;;;14.80;99.90;;;;;;4954724;28;20216;-65
2021/10/14 08:48:17;;;;;;;1.23;0.60;;;14.90;99.90;;;;;;4954817;28;20645;-66
2021/10/14 08:50:46;;;;;;;1.13;1.03;;;15.00;99.90;;;;;;4954869;28;20172;-65
2021/10/14 08:53:11;;;;;;;0.40;0.32;;;15.10;99.90;;;;;;4954961;28;20185;-65
2021/10/14 08:55:38;;;;;;;0.63;0.60;;;15.10;99.90;;;;;;4954731;28;20181;-65
2021/10/14 08:58:07;;;;;;;0.40;0.20;;;15.00;99.90;;;;;;4955295;28;20335;-65
2021/10/14 09:00:37;;;;;;;0.95;0.70;;;15.20;99.90;;;;;;4958027;28;20184;-65
2021/10/14 09:03:34;;;;;;;0.38;0.20;;;15.30;99.90;;;;;;4958158;28;20231;-65
2021/10/14 09:06:00;;;;;;;0.85;0.57;;;15.40;99.90;;;;;;4954195;28;20227;-65
2021/10/14 09:08:44;;;;;;;0.40;0.35;;;15.30;99.90;;;;;;4956932;28;20177;-65
2021/10/14 09:11:30;;;;;;;0.40;0.30;;;15.40;99.90;;;;;;4957075;28;20327;-65
2021/10/14 09:13:57;;;;;;;0.40;0.20;;;15.60;99.90;;;;;;4957761;28;20205;-65
2021/10/14 09:16:29;;;;;;;0.40;0.20;;;15.70;99.90;;;;;;4958144;28;20274;-65
2021/10/14 09:19:08;;;;;;;0.80;0.63;;;16.00;99.90;;;;;;4957597;28;20184;-66
2021/10/14 09:21:33;;;;;;;0.40;0.20;;;16.00;99.90;;;;;;4957673;28;20180;-65
2021/10/14 09:23:59;;;;;;;0.40;0.17;;;16.00;99.90;;;;;;4957609;28;20428;-66
2021/10/14 09:26:30;;;;;;;0.70;0.60;;;16.10;99.90;;;;;;4957597;28;20280;-66
2021/10/14 09:29:12;;;;;;;0.70;0.60;;;16.20;99.90;;;;;;4957425;28;20539;-65
2021/10/14 09:31:58;;;;;;;0.40;0.30;;;15.90;80.80;;;;;;4957704;28;20212;-65
2021/10/14 09:34:26;;;;;;;0.40;0.20;;;15.80;99.90;;;;;;4957583;28;20191;-65
2021/10/14 09:36:52;;;;;;;0.43;0.38;;;15.70;99.90;;;;;;4957535;28;20262;-65
2021/10/14 09:39:19;;;;;;;0.50;0.30;;;15.50;99.90;;;;;;4957516;28;20195;-65
2021/10/14 09:41:45;;;;;;;0.70;0.50;;;15.30;99.90;;;;;;4957529;28;20509;-65
2021/10/14 09:44:18;;;;;;;1.38;0.65;;;15.10;99.90;;;;;;4956087;28;20187;-65
2021/10/14 09:46:49;;;;;;;0.45;0.22;;;15.00;99.90;;;;;;4957518;28;20716;-65
2021/10/14 09:49:32;;;;;;;0.40;0.30;;;14.90;99.90;;;;;;4958056;28;20505;-65
2021/10/14 09:52:01;;;;;;;0.40;0.20;;;14.80;99.90;;;;;;4957891;28;20263;-65
2021/10/14 09:54:30;;;;;;;0.88;0.77;;;14.80;99.90;;;;;;4956528;28;20187;-65
2021/10/14 09:56:56;;;;;;;0.40;0.20;;;14.60;99.90;;;;;;4957356;28;20195;-65
2021/10/14 09:59:22;;;;;;;0.37;0.23;;;14.80;99.90;;;;;;4956948;28;20243;-65
2021/10/14 10:01:50;;;;;;;0.40;0.20;;;14.90;99.90;;;;;;4955954;28;20498;-65
2021/10/14 10:04:25;;;;;;;0.40;0.25;;;14.80;99.90;;;;;;4957000;28;20490;-66
2021/10/14 10:06:51;;;;;;;0.40;0.20;;;15.10;99.90;;;;;;4956750;28;20246;-65
2021/10/14 10:09:18;;;;;;;0.38;0.25;;;15.00;99.90;;;;;;4954986;28;20195;-65
2021/10/14 10:11:50;;;;;;;0.40;0.30;;;14.90;99.90;;;;;;4956689;28;20194;-65
2021/10/14 10:14:22;;;;;;;0.40;0.30;;;15.10;99.90;;;;;;4955817;28;20181;-65
2021/10/14 10:16:59;;;;;;;1.05;0.57;;;14.80;99.90;;;;;;4956966;28;20187;-65
2021/10/14 10:19:44;;;;;;;0.73;0.50;;;14.60;99.90;;;;;;4956573;28;20184;-65
2021/10/14 10:22:11;;;;;;;0.30;0.20;;;14.70;99.90;;;;;;4956123;28;20246;-65
2021/10/14 10:24:37;;;;;;;0.32;0.20;;;14.70;99.90;;;;;;4956767;28;20610;-64
2021/10/14 10:27:05;;;;;;;0.40;0.30;;;14.60;99.90;;;;;;4956500;28;20247;-65
2021/10/14 10:29:38;;;;;;;1.13;0.45;;;14.40;99.90;;;;;;4956243;28;20439;-65
2021/10/14 10:32:04;;;;;;;0.40;0.30;;;14.40;99.90;;;;;;4955598;28;20184;-64
2021/10/14 10:37:21;;;;;;;0.70;0.30;;;14.40;99.90;;;;;;4956451;28;20187;-65
2021/10/14 10:40:01;;;;;;;0.50;0.20;;;14.50;99.90;;;;;;4956269;28;20242;-64
2021/10/14 10:42:38;;;;;;;1.60;1.50;;;14.70;99.90;;;;;;4955378;28;20695;-65
2021/10/14 10:45:13;;;;;;;1.60;1.33;;;14.90;99.90;;;;;;4955416;28;20310;-65
2021/10/14 10:47:39;;;;;;;0.50;0.40;;;15.10;99.90;;;;;;4956532;28;20175;-65
2021/10/14 10:50:07;;;;;;;0.73;0.70;;;14.90;99.90;;;;;;4955131;28;20222;-66
2021/10/14 10:52:35;;;;;;;2.15;1.63;;;14.80;99.90;;;;;;4956298;28;20534;-66
2021/10/14 10:55:10;;;;;;;1.80;1.30;;;14.90;99.90;;;;;;4956374;28;20196;-65
2021/10/14 10:57:47;;;;;;;1.63;1.30;;;15.30;99.90;;;;;;4956305;28;20203;-65
2021/10/14 11:00:15;;;;;;;1.88;1.52;;;15.00;99.90;;;;;;4956335;28;20539;-64
2021/10/14 11:02:41;;;;;;;1.83;1.58;;;15.00;99.90;;;;;;4956322;28;20192;-63
2021/10/14 11:05:07;;;;;;;2.33;1.40;;;14.70;99.90;;;;;;4956645;28;20200;-63
2021/10/14 11:07:32;;;;;;;0.40;0.40;;;14.30;99.90;;;;;;4957231;28;20490;-64
2021/10/14 11:09:58;;;;;;;0.30;0.20;;;14.30;99.90;;;;;;4958054;28;20435;-64
2021/10/14 11:12:23;;;;;;;0.30;0.20;;;14.40;99.90;;;;;;4958837;28;20272;-65
2021/10/14 11:14:49;;;;;;;1.70;1.23;;;14.70;99.90;;;;;;4956483;28;20236;-64
2021/10/14 11:17:16;;;;;;;0.67;0.43;;;14.40;99.90;;;;;;4956480;28;20196;-66
2021/10/14 11:19:42;;;;;;;3.33;1.95;;;14.30;99.90;;;;;;4955708;28;20243;-65
2021/10/14 11:22:13;;;;;;;1.08;1.02;;;14.30;99.90;;;;;;4955692;28;20186;-66
2021/10/14 11:24:47;;;;;;;0.77;0.57;;;14.40;99.90;;;;;;4955835;28;20191;-65
2021/10/14 11:27:17;;;;;;;0.80;0.80;;;14.20;99.90;;;;;;4955822;28;20659;-65
2021/10/14 11:29:44;;;;;;;1.20;1.20;;;13.90;99.90;;;;;;4955580;28;20210;-65
2021/10/14 11:32:17;;;;;;;0.40;0.20;;;13.90;99.90;;;;;;4955846;28;20180;-65
2021/10/14 11:34:43;;;;;;;1.35;1.13;;;13.90;99.90;;;;;;4955640;28;20172;-65
2021/10/14 11:37:10;;;;;;;0.40;0.30;;;14.00;99.90;;;;;;4955898;28;20199;-65
2021/10/14 11:39:37;;;;;;;0.40;0.35;;;14.00;99.90;;;;;;4955266;28;20960;-65
2021/10/14 11:42:05;;;;;;;0.88;0.85;;;13.80;99.90;;;;;;4955447;28;20180;-65
2021/10/14 11:44:34;;;;;;;0.30;0.20;;;13.80;99.90;;;;;;4955427;28;20177;-65
2021/10/14 11:47:00;;;;;;;0.43;0.43;;;13.70;99.90;;;;;;4954798;29;20212;-66
2021/10/14 11:49:27;;;;;;;0.68;0.40;;;13.80;99.90;;;;;;4955309;28;20180;-65
2021/10/14 11:51:53;;;;;;;0.85;0.80;;;13.80;99.90;;;;;;4954632;29;20191;-65
2021/10/14 11:54:20;;;;;;;0.30;0.20;;;13.90;99.90;;;;;;4955346;28;20614;-65
2021/10/14 11:56:48;;;;;;;0.30;0.20;;;14.10;99.90;;;;;;4955373;28;20184;-65
2021/10/14 11:59:17;;;;;;;0.30;0.20;;;14.40;99.90;;;;;;4955094;28;20196;-65
2021/10/14 12:01:57;;;;;;;0.98;0.47;;;14.50;99.90;;;;;;4955271;28;20185;-65
2021/10/14 12:04:26;;;;;;;5.18;2.55;;;14.70;99.90;;;;;;4955595;28;20626;-65
2021/10/14 12:06:53;;;;;;;0.63;0.63;;;14.70;99.90;;;;;;4955369;28;20219;-65
2021/10/14 12:09:20;;;;;;;0.73;0.73;;;15.00;99.90;;;;;;4955355;28;20181;-65
2021/10/14 12:11:46;;;;;;;0.30;0.20;;;15.00;99.90;;;;;;4955296;28;20168;-65
2021/10/14 12:14:21;;;;;;;0.70;0.40;;;15.10;99.90;;;;;;4955139;28;20402;-65
2021/10/14 12:17:13;;;;;;;1.10;1.00;;;15.30;99.90;;;;;;4955284;28;20180;-66
2021/10/14 12:19:39;;;;;;;1.05;0.95;;;15.20;99.90;;;;;;4954968;28;20231;-67
2021/10/14 12:22:06;;;;;;;0.40;0.20;;;15.60;99.90;;;;;;4955073;28;20259;-66
2021/10/14 12:24:36;;;;;;;1.15;0.77;;;15.60;99.90;;;;;;4955248;28;20226;-65
2021/10/14 12:27:02;;;;;;;3.25;2.13;;;15.40;99.90;;;;;;4954892;28;20204;-66
2021/10/14 12:29:33;;;;;;;2.83;1.05;;;15.40;99.90;;;;;;4954966;28;20192;-65
2021/10/14 12:32:15;;;;;;;1.98;1.38;;;15.20;99.90;;;;;;4955095;28;20188;-65
2021/10/14 12:34:59;;;;;;;0.63;0.63;;;15.10;99.90;;;;;;4958204;28;20649;-66
2021/10/14 12:37:32;;;;;;;0.40;0.20;;;15.40;99.90;;;;;;4957845;29;20222;-66
2021/10/14 12:40:20;;;;;;;0.30;0.20;;;15.40;99.90;;;;;;4958368;28;20615;-66
2021/10/14 12:43:14;;;;;;;0.30;0.20;;;15.40;99.90;;;;;;4958443;28;20184;-66
2021/10/14 12:45:56;;;;;;;0.40;0.20;;;15.30;99.90;;;;;;4958473;28;20212;-66
2021/10/14 12:51:11;;;;;;;0.32;0.17;;;15.30;99.90;;;;;;4958345;28;20489;-66
2021/10/14 12:53:44;;;;;;;0.55;0.55;;;15.60;99.90;;;;;;4958423;28;20185;-66